sensor_id;sensor_type;location;lat;lon;timestamp;P1;durP1;ratioP1;P2;durP2;ratioP2
78416;SDS011;67715;46.170;6.140;2024-02-21T00:00:46;3.72;;;2.45;;
78416;SDS011;67715;46.170;6.140;2024-02-21T00:03:12;4.28;;;2.53;;
78416;SDS011;67715;46.170;6.140;2024-02-21T00:05:37;5.37;;;2.73;;
78416;SDS011;67715;46.170;6.140;2024-02-21T00:08:03;3.27;;;2.43;;
78416;SDS011;67715;46.170;6.140;2024-02-21T00:10:28;6.68;;;2.80;;
78416;SDS011;67715;46.170;6.140;2024-02-21T00:12:54;3.95;;;2.50;;
78416;SDS011;67715;46.170;6.140;2024-02-21T00:15:19;3.67;;;1.77;;
78416;SDS011;67715;46.170;6.140;2024-02-21T00:17:44;4.27;;;2.60;;
78416;SDS011;67715;46.170;6.140;2024-02-21T00:20:10;5.63;;;2.77;;
78416;SDS011;67715;46.170;6.140;2024-02-21T00:22:36;4.50;;;2.40;;
78416;SDS011;67715;46.170;6.140;2024-02-21T00:25:01;6.35;;;2.67;;
78416;SDS011;67715;46.170;6.140;2024-02-21T00:27:26;4.05;;;2.33;;
78416;SDS011;67715;46.170;6.140;2024-02-21T00:29:52;4.53;;;2.73;;
78416;SDS011;67715;46.170;6.140;2024-02-21T00:32:17;4.93;;;2.60;;
78416;SDS011;67715;46.170;6.140;2024-02-21T00:34:43;5.13;;;2.27;;
78416;SDS011;67715;46.170;6.140;2024-02-21T00:37:08;3.35;;;2.45;;
78416;SDS011;67715;46.170;6.140;2024-02-21T00:39:34;3.87;;;2.40;;
78416;SDS011;67715;46.170;6.140;2024-02-21T00:41:59;3.63;;;2.27;;
78416;SDS011;67715;46.170;6.140;2024-02-21T00:44:24;3.03;;;1.90;;
78416;SDS011;67715;46.170;6.140;2024-02-21T00:46:50;3.40;;;2.40;;
78416;SDS011;67715;46.170;6.140;2024-02-21T00:49:15;2.90;;;1.73;;
78416;SDS011;67715;46.170;6.140;2024-02-21T00:51:41;2.77;;;2.13;;
78416;SDS011;67715;46.170;6.140;2024-02-21T00:54:06;3.87;;;1.93;;
78416;SDS011;67715;46.170;6.140;2024-02-21T00:56:31;3.65;;;2.05;;
78416;SDS011;67715;46.170;6.140;2024-02-21T00:58:57;3.47;;;2.13;;
78416;SDS011;67715;46.170;6.140;2024-02-21T01:01:23;4.27;;;2.20;;
78416;SDS011;67715;46.170;6.140;2024-02-21T01:03:49;3.00;;;1.95;;
78416;SDS011;67715;46.170;6.140;2024-02-21T01:06:14;2.97;;;1.67;;
78416;SDS011;67715;46.170;6.140;2024-02-21T01:08:39;6.33;;;2.77;;
78416;SDS011;67715;46.170;6.140;2024-02-21T01:11:05;2.23;;;2.03;;
78416;SDS011;67715;46.170;6.140;2024-02-21T01:13:30;4.47;;;2.17;;
78416;SDS011;67715;46.170;6.140;2024-02-21T01:15:55;3.90;;;2.50;;
78416;SDS011;67715;46.170;6.140;2024-02-21T01:18:21;3.50;;;2.00;;
78416;SDS011;67715;46.170;6.140;2024-02-21T01:20:46;3.45;;;2.28;;
78416;SDS011;67715;46.170;6.140;2024-02-21T01:23:11;2.87;;;2.13;;
78416;SDS011;67715;46.170;6.140;2024-02-21T01:25:37;3.17;;;2.10;;
78416;SDS011;67715;46.170;6.140;2024-02-21T01:28:02;2.80;;;1.90;;
78416;SDS011;67715;46.170;6.140;2024-02-21T01:30:28;4.53;;;2.00;;
78416;SDS011;67715;46.170;6.140;2024-02-21T01:32:53;2.93;;;1.97;;
78416;SDS011;67715;46.170;6.140;2024-02-21T01:35:18;4.50;;;2.23;;
78416;SDS011;67715;46.170;6.140;2024-02-21T01:37:43;3.07;;;2.07;;
78416;SDS011;67715;46.170;6.140;2024-02-21T01:40:09;3.90;;;2.10;;
78416;SDS011;67715;46.170;6.140;2024-02-21T01:42:37;4.55;;;1.92;;
78416;SDS011;67715;46.170;6.140;2024-02-21T01:45:04;2.53;;;1.90;;
78416;SDS011;67715;46.170;6.140;2024-02-21T01:47:30;2.40;;;1.80;;
78416;SDS011;67715;46.170;6.140;2024-02-21T01:49:55;4.93;;;2.20;;
78416;SDS011;67715;46.170;6.140;2024-02-21T01:52:20;2.50;;;1.97;;
78416;SDS011;67715;46.170;6.140;2024-02-21T01:54:46;2.95;;;2.00;;
78416;SDS011;67715;46.170;6.140;2024-02-21T01:57:12;3.60;;;2.05;;
78416;SDS011;67715;46.170;6.140;2024-02-21T01:59:38;3.30;;;2.28;;
78416;SDS011;67715;46.170;6.140;2024-02-21T02:02:03;2.95;;;1.92;;
78416;SDS011;67715;46.170;6.140;2024-02-21T02:04:29;2.53;;;1.93;;
78416;SDS011;67715;46.170;6.140;2024-02-21T02:06:54;2.53;;;1.80;;
78416;SDS011;67715;46.170;6.140;2024-02-21T02:09:20;5.43;;;2.13;;
78416;SDS011;67715;46.170;6.140;2024-02-21T02:11:45;3.77;;;2.33;;
78416;SDS011;67715;46.170;6.140;2024-02-21T02:14:10;3.70;;;2.07;;
78416;SDS011;67715;46.170;6.140;2024-02-21T02:16:36;3.07;;;1.70;;
78416;SDS011;67715;46.170;6.140;2024-02-21T02:19:01;2.57;;;1.90;;
78416;SDS011;67715;46.170;6.140;2024-02-21T02:21:29;3.33;;;2.00;;
78416;SDS011;67715;46.170;6.140;2024-02-21T02:23:56;2.95;;;1.77;;
78416;SDS011;67715;46.170;6.140;2024-02-21T02:26:22;2.97;;;1.92;;
78416;SDS011;67715;46.170;6.140;2024-02-21T02:28:47;5.97;;;2.40;;
78416;SDS011;67715;46.170;6.140;2024-02-21T02:31:12;4.10;;;2.20;;
78416;SDS011;67715;46.170;6.140;2024-02-21T02:33:38;2.37;;;1.87;;
78416;SDS011;67715;46.170;6.140;2024-02-21T02:36:03;3.73;;;1.97;;
78416;SDS011;67715;46.170;6.140;2024-02-21T02:38:29;5.45;;;2.85;;
78416;SDS011;67715;46.170;6.140;2024-02-21T02:40:54;4.40;;;1.90;;
78416;SDS011;67715;46.170;6.140;2024-02-21T02:43:19;4.20;;;2.27;;
78416;SDS011;67715;46.170;6.140;2024-02-21T02:45:45;5.03;;;2.10;;
78416;SDS011;67715;46.170;6.140;2024-02-21T02:48:10;3.80;;;2.30;;
78416;SDS011;67715;46.170;6.140;2024-02-21T02:50:35;5.03;;;2.30;;
78416;SDS011;67715;46.170;6.140;2024-02-21T02:53:01;3.50;;;2.33;;
78416;SDS011;67715;46.170;6.140;2024-02-21T02:55:26;3.73;;;2.20;;
78416;SDS011;67715;46.170;6.140;2024-02-21T02:57:51;5.40;;;2.50;;
78416;SDS011;67715;46.170;6.140;2024-02-21T03:00:17;3.10;;;2.30;;
78416;SDS011;67715;46.170;6.140;2024-02-21T03:02:43;3.40;;;2.15;;
78416;SDS011;67715;46.170;6.140;2024-02-21T03:05:11;4.88;;;2.45;;
78416;SDS011;67715;46.170;6.140;2024-02-21T03:07:39;5.32;;;2.35;;
78416;SDS011;67715;46.170;6.140;2024-02-21T03:10:04;5.60;;;2.33;;
78416;SDS011;67715;46.170;6.140;2024-02-21T03:12:30;3.10;;;2.20;;
78416;SDS011;67715;46.170;6.140;2024-02-21T03:14:55;3.90;;;2.00;;
78416;SDS011;67715;46.170;6.140;2024-02-21T03:17:20;2.90;;;1.80;;
78416;SDS011;67715;46.170;6.140;2024-02-21T03:19:46;3.35;;;2.10;;
78416;SDS011;67715;46.170;6.140;2024-02-21T03:22:12;4.38;;;2.15;;
78416;SDS011;67715;46.170;6.140;2024-02-21T03:24:37;3.37;;;2.17;;
78416;SDS011;67715;46.170;6.140;2024-02-21T03:27:02;5.30;;;2.50;;
78416;SDS011;67715;46.170;6.140;2024-02-21T03:29:27;5.57;;;2.30;;
78416;SDS011;67715;46.170;6.140;2024-02-21T03:31:53;2.90;;;2.07;;
78416;SDS011;67715;46.170;6.140;2024-02-21T03:34:18;4.78;;;2.28;;
78416;SDS011;67715;46.170;6.140;2024-02-21T03:36:44;3.57;;;2.50;;
78416;SDS011;67715;46.170;6.140;2024-02-21T03:39:09;2.97;;;2.13;;
78416;SDS011;67715;46.170;6.140;2024-02-21T03:41:35;5.63;;;1.73;;
78416;SDS011;67715;46.170;6.140;2024-02-21T03:44:00;3.65;;;2.28;;
78416;SDS011;67715;46.170;6.140;2024-02-21T03:46:26;3.20;;;1.85;;
78416;SDS011;67715;46.170;6.140;2024-02-21T03:48:52;2.75;;;1.80;;
78416;SDS011;67715;46.170;6.140;2024-02-21T03:51:17;2.60;;;2.00;;
78416;SDS011;67715;46.170;6.140;2024-02-21T03:53:42;4.67;;;2.33;;
78416;SDS011;67715;46.170;6.140;2024-02-21T03:56:08;3.60;;;1.93;;
78416;SDS011;67715;46.170;6.140;2024-02-21T03:58:33;5.87;;;2.43;;
78416;SDS011;67715;46.170;6.140;2024-02-21T04:01:02;5.70;;;1.97;;
78416;SDS011;67715;46.170;6.140;2024-02-21T04:03:28;5.80;;;2.50;;
78416;SDS011;67715;46.170;6.140;2024-02-21T04:05:54;4.57;;;2.22;;
78416;SDS011;67715;46.170;6.140;2024-02-21T04:08:19;4.57;;;2.27;;
78416;SDS011;67715;46.170;6.140;2024-02-21T04:10:44;3.42;;;1.90;;
78416;SDS011;67715;46.170;6.140;2024-02-21T04:13:10;4.77;;;2.20;;
78416;SDS011;67715;46.170;6.140;2024-02-21T04:15:35;2.47;;;1.63;;
78416;SDS011;67715;46.170;6.140;2024-02-21T04:18:01;4.07;;;1.67;;
78416;SDS011;67715;46.170;6.140;2024-02-21T04:20:26;3.42;;;2.38;;
78416;SDS011;67715;46.170;6.140;2024-02-21T04:22:52;3.67;;;1.73;;
78416;SDS011;67715;46.170;6.140;2024-02-21T04:25:17;4.03;;;1.87;;
78416;SDS011;67715;46.170;6.140;2024-02-21T04:27:42;3.20;;;2.30;;
78416;SDS011;67715;46.170;6.140;2024-02-21T04:30:09;3.07;;;2.20;;
78416;SDS011;67715;46.170;6.140;2024-02-21T04:32:34;5.40;;;2.92;;
78416;SDS011;67715;46.170;6.140;2024-02-21T04:35:00;4.22;;;2.35;;
78416;SDS011;67715;46.170;6.140;2024-02-21T04:37:25;5.63;;;2.35;;
78416;SDS011;67715;46.170;6.140;2024-02-21T04:39:51;4.23;;;3.03;;
78416;SDS011;67715;46.170;6.140;2024-02-21T04:42:16;4.97;;;2.37;;
78416;SDS011;67715;46.170;6.140;2024-02-21T04:44:41;4.97;;;2.42;;
78416;SDS011;67715;46.170;6.140;2024-02-21T04:47:07;4.63;;;2.53;;
78416;SDS011;67715;46.170;6.140;2024-02-21T04:49:32;3.03;;;2.13;;
78416;SDS011;67715;46.170;6.140;2024-02-21T04:51:58;3.40;;;2.25;;
78416;SDS011;67715;46.170;6.140;2024-02-21T04:54:23;3.33;;;1.90;;
78416;SDS011;67715;46.170;6.140;2024-02-21T04:56:49;7.13;;;2.65;;
78416;SDS011;67715;46.170;6.140;2024-02-21T04:59:14;2.70;;;2.00;;
78416;SDS011;67715;46.170;6.140;2024-02-21T05:01:39;5.78;;;2.42;;
78416;SDS011;67715;46.170;6.140;2024-02-21T05:04:05;5.10;;;2.33;;
78416;SDS011;67715;46.170;6.140;2024-02-21T05:06:30;5.27;;;2.87;;
78416;SDS011;67715;46.170;6.140;2024-02-21T05:08:55;6.20;;;2.93;;
78416;SDS011;67715;46.170;6.140;2024-02-21T05:11:22;3.00;;;2.25;;
78416;SDS011;67715;46.170;6.140;2024-02-21T05:13:48;3.83;;;2.47;;
78416;SDS011;67715;46.170;6.140;2024-02-21T05:16:13;4.87;;;2.57;;
78416;SDS011;67715;46.170;6.140;2024-02-21T05:18:39;4.17;;;2.50;;
78416;SDS011;67715;46.170;6.140;2024-02-21T05:21:05;5.65;;;2.53;;
78416;SDS011;67715;46.170;6.140;2024-02-21T05:23:30;4.83;;;2.47;;
78416;SDS011;67715;46.170;6.140;2024-02-21T05:25:56;5.47;;;2.50;;
78416;SDS011;67715;46.170;6.140;2024-02-21T05:28:21;4.70;;;2.93;;
78416;SDS011;67715;46.170;6.140;2024-02-21T05:30:46;3.20;;;2.47;;
78416;SDS011;67715;46.170;6.140;2024-02-21T05:33:12;5.93;;;2.83;;
78416;SDS011;67715;46.170;6.140;2024-02-21T05:35:37;4.32;;;2.20;;
78416;SDS011;67715;46.170;6.140;2024-02-21T05:38:03;6.47;;;3.03;;
78416;SDS011;67715;46.170;6.140;2024-02-21T05:40:36;4.18;;;2.28;;
78416;SDS011;67715;46.170;6.140;2024-02-21T05:43:01;5.03;;;3.00;;
78416;SDS011;67715;46.170;6.140;2024-02-21T05:45:27;3.20;;;2.22;;
78416;SDS011;67715;46.170;6.140;2024-02-21T05:47:52;2.80;;;2.17;;
78416;SDS011;67715;46.170;6.140;2024-02-21T05:50:17;7.07;;;2.43;;
78416;SDS011;67715;46.170;6.140;2024-02-21T05:52:42;4.13;;;2.30;;
78416;SDS011;67715;46.170;6.140;2024-02-21T05:55:08;2.50;;;1.87;;
78416;SDS011;67715;46.170;6.140;2024-02-21T05:57:36;3.67;;;2.42;;
78416;SDS011;67715;46.170;6.140;2024-02-21T06:00:05;6.03;;;2.47;;
78416;SDS011;67715;46.170;6.140;2024-02-21T06:02:31;3.10;;;2.10;;
78416;SDS011;67715;46.170;6.140;2024-02-21T06:04:56;4.60;;;2.40;;
78416;SDS011;67715;46.170;6.140;2024-02-21T06:07:21;5.83;;;2.23;;
78416;SDS011;67715;46.170;6.140;2024-02-21T06:09:47;3.13;;;2.17;;
78416;SDS011;67715;46.170;6.140;2024-02-21T06:12:12;3.80;;;2.30;;
78416;SDS011;67715;46.170;6.140;2024-02-21T06:14:37;2.57;;;1.90;;
78416;SDS011;67715;46.170;6.140;2024-02-21T06:17:03;4.17;;;2.50;;
78416;SDS011;67715;46.170;6.140;2024-02-21T06:19:28;2.93;;;2.17;;
78416;SDS011;67715;46.170;6.140;2024-02-21T06:21:53;3.33;;;2.40;;
78416;SDS011;67715;46.170;6.140;2024-02-21T06:24:19;6.03;;;2.33;;
78416;SDS011;67715;46.170;6.140;2024-02-21T06:26:44;5.07;;;2.73;;
78416;SDS011;67715;46.170;6.140;2024-02-21T06:29:10;3.58;;;1.90;;
78416;SDS011;67715;46.170;6.140;2024-02-21T06:31:36;6.15;;;2.33;;
78416;SDS011;67715;46.170;6.140;2024-02-21T06:34:01;5.13;;;2.40;;
78416;SDS011;67715;46.170;6.140;2024-02-21T06:36:27;3.17;;;1.83;;
78416;SDS011;67715;46.170;6.140;2024-02-21T06:38:52;2.83;;;2.00;;
78416;SDS011;67715;46.170;6.140;2024-02-21T06:41:18;3.33;;;2.20;;
78416;SDS011;67715;46.170;6.140;2024-02-21T06:43:47;4.72;;;2.42;;
78416;SDS011;67715;46.170;6.140;2024-02-21T06:46:22;6.60;;;2.70;;
78416;SDS011;67715;46.170;6.140;2024-02-21T06:48:48;5.90;;;2.35;;
78416;SDS011;67715;46.170;6.140;2024-02-21T06:51:13;5.80;;;2.40;;
78416;SDS011;67715;46.170;6.140;2024-02-21T06:53:39;4.37;;;2.33;;
78416;SDS011;67715;46.170;6.140;2024-02-21T06:56:05;3.38;;;2.20;;
78416;SDS011;67715;46.170;6.140;2024-02-21T06:58:30;6.03;;;4.35;;
78416;SDS011;67715;46.170;6.140;2024-02-21T07:00:56;7.10;;;4.57;;
78416;SDS011;67715;46.170;6.140;2024-02-21T07:03:21;5.27;;;3.07;;
78416;SDS011;67715;46.170;6.140;2024-02-21T07:05:46;5.70;;;3.55;;
78416;SDS011;67715;46.170;6.140;2024-02-21T07:08:11;5.43;;;3.20;;
78416;SDS011;67715;46.170;6.140;2024-02-21T07:10:37;4.23;;;2.83;;
78416;SDS011;67715;46.170;6.140;2024-02-21T07:13:02;7.67;;;3.07;;
78416;SDS011;67715;46.170;6.140;2024-02-21T07:15:28;6.63;;;3.05;;
78416;SDS011;67715;46.170;6.140;2024-02-21T07:17:55;6.53;;;2.80;;
78416;SDS011;67715;46.170;6.140;2024-02-21T07:20:21;4.77;;;3.03;;
78416;SDS011;67715;46.170;6.140;2024-02-21T07:22:46;5.00;;;3.30;;
78416;SDS011;67715;46.170;6.140;2024-02-21T07:25:11;4.50;;;2.77;;
78416;SDS011;67715;46.170;6.140;2024-02-21T07:27:37;8.67;;;3.23;;
78416;SDS011;67715;46.170;6.140;2024-02-21T07:30:02;8.98;;;3.92;;
78416;SDS011;67715;46.170;6.140;2024-02-21T07:32:28;8.65;;;4.60;;
78416;SDS011;67715;46.170;6.140;2024-02-21T07:34:53;7.80;;;4.20;;
78416;SDS011;67715;46.170;6.140;2024-02-21T07:37:19;6.97;;;4.25;;
78416;SDS011;67715;46.170;6.140;2024-02-21T07:39:44;6.87;;;4.17;;
78416;SDS011;67715;46.170;6.140;2024-02-21T07:42:09;7.53;;;4.00;;
78416;SDS011;67715;46.170;6.140;2024-02-21T07:44:35;8.30;;;3.47;;
78416;SDS011;67715;46.170;6.140;2024-02-21T07:47:00;6.93;;;3.97;;
78416;SDS011;67715;46.170;6.140;2024-02-21T07:49:26;9.60;;;3.80;;
78416;SDS011;67715;46.170;6.140;2024-02-21T07:51:51;6.87;;;4.20;;
78416;SDS011;67715;46.170;6.140;2024-02-21T07:54:17;12.88;;;4.22;;
78416;SDS011;67715;46.170;6.140;2024-02-21T07:56:43;5.40;;;4.30;;
78416;SDS011;67715;46.170;6.140;2024-02-21T07:59:08;8.90;;;4.40;;
78416;SDS011;67715;46.170;6.140;2024-02-21T08:01:33;7.13;;;4.23;;
78416;SDS011;67715;46.170;6.140;2024-02-21T08:03:59;10.20;;;4.77;;
78416;SDS011;67715;46.170;6.140;2024-02-21T08:06:24;12.90;;;6.32;;
78416;SDS011;67715;46.170;6.140;2024-02-21T08:08:49;10.73;;;6.87;;
78416;SDS011;67715;46.170;6.140;2024-02-21T08:11:15;8.20;;;4.97;;
78416;SDS011;67715;46.170;6.140;2024-02-21T08:13:40;9.47;;;4.80;;
78416;SDS011;67715;46.170;6.140;2024-02-21T08:16:05;7.43;;;3.87;;
78416;SDS011;67715;46.170;6.140;2024-02-21T08:18:31;7.95;;;4.00;;
78416;SDS011;67715;46.170;6.140;2024-02-21T08:20:56;7.43;;;3.93;;
78416;SDS011;67715;46.170;6.140;2024-02-21T08:23:23;7.83;;;4.37;;
78416;SDS011;67715;46.170;6.140;2024-02-21T08:25:48;8.25;;;4.65;;
78416;SDS011;67715;46.170;6.140;2024-02-21T08:28:14;5.63;;;3.85;;
78416;SDS011;67715;46.170;6.140;2024-02-21T08:30:40;9.13;;;4.53;;
78416;SDS011;67715;46.170;6.140;2024-02-21T08:33:09;10.95;;;4.50;;
78416;SDS011;67715;46.170;6.140;2024-02-21T08:35:34;6.93;;;4.03;;
78416;SDS011;67715;46.170;6.140;2024-02-21T08:38:00;7.07;;;3.65;;
78416;SDS011;67715;46.170;6.140;2024-02-21T08:40:25;7.27;;;3.80;;
78416;SDS011;67715;46.170;6.140;2024-02-21T08:42:50;7.30;;;4.07;;
78416;SDS011;67715;46.170;6.140;2024-02-21T08:45:16;8.70;;;3.80;;
78416;SDS011;67715;46.170;6.140;2024-02-21T08:47:41;5.07;;;3.42;;
78416;SDS011;67715;46.170;6.140;2024-02-21T08:50:07;7.90;;;3.70;;
78416;SDS011;67715;46.170;6.140;2024-02-21T08:52:34;5.55;;;4.13;;
78416;SDS011;67715;46.170;6.140;2024-02-21T08:55:00;6.63;;;3.90;;
78416;SDS011;67715;46.170;6.140;2024-02-21T08:57:25;9.52;;;4.68;;
78416;SDS011;67715;46.170;6.140;2024-02-21T08:59:51;9.50;;;3.97;;
78416;SDS011;67715;46.170;6.140;2024-02-21T09:02:17;5.23;;;3.53;;
78416;SDS011;67715;46.170;6.140;2024-02-21T09:04:42;9.73;;;5.00;;
78416;SDS011;67715;46.170;6.140;2024-02-21T09:07:08;5.35;;;3.83;;
78416;SDS011;67715;46.170;6.140;2024-02-21T09:09:34;14.43;;;5.85;;
78416;SDS011;67715;46.170;6.140;2024-02-21T09:12:00;5.60;;;4.15;;
78416;SDS011;67715;46.170;6.140;2024-02-21T09:14:30;8.18;;;3.50;;
78416;SDS011;67715;46.170;6.140;2024-02-21T09:16:59;6.03;;;4.32;;
78416;SDS011;67715;46.170;6.140;2024-02-21T09:19:24;5.43;;;4.22;;
78416;SDS011;67715;46.170;6.140;2024-02-21T09:21:50;6.07;;;3.53;;
78416;SDS011;67715;46.170;6.140;2024-02-21T09:24:15;9.60;;;4.50;;
78416;SDS011;67715;46.170;6.140;2024-02-21T09:26:40;8.55;;;3.47;;
78416;SDS011;67715;46.170;6.140;2024-02-21T09:29:06;5.50;;;3.50;;
78416;SDS011;67715;46.170;6.140;2024-02-21T09:31:31;6.90;;;3.97;;
78416;SDS011;67715;46.170;6.140;2024-02-21T09:33:56;5.13;;;3.50;;
78416;SDS011;67715;46.170;6.140;2024-02-21T09:36:22;6.63;;;3.83;;
78416;SDS011;67715;46.170;6.140;2024-02-21T09:38:47;5.78;;;3.78;;
78416;SDS011;67715;46.170;6.140;2024-02-21T09:41:16;9.17;;;4.10;;
78416;SDS011;67715;46.170;6.140;2024-02-21T09:46:17;7.53;;;3.35;;
78416;SDS011;67715;46.170;6.140;2024-02-21T09:51:30;5.50;;;3.55;;
78416;SDS011;67715;46.170;6.140;2024-02-21T09:53:57;6.30;;;4.10;;
78416;SDS011;67715;46.170;6.140;2024-02-21T09:56:23;6.43;;;4.07;;
78416;SDS011;67715;46.170;6.140;2024-02-21T09:58:48;7.80;;;4.07;;
78416;SDS011;67715;46.170;6.140;2024-02-21T10:01:13;7.37;;;3.97;;
78416;SDS011;67715;46.170;6.140;2024-02-21T10:03:39;10.95;;;4.60;;
78416;SDS011;67715;46.170;6.140;2024-02-21T10:06:04;7.15;;;3.78;;
78416;SDS011;67715;46.170;6.140;2024-02-21T10:08:30;6.57;;;4.60;;
78416;SDS011;67715;46.170;6.140;2024-02-21T10:10:55;12.43;;;3.27;;
78416;SDS011;67715;46.170;6.140;2024-02-21T10:13:27;4.90;;;3.60;;
78416;SDS011;67715;46.170;6.140;2024-02-21T10:16:00;7.60;;;3.50;;
78416;SDS011;67715;46.170;6.140;2024-02-21T10:18:29;7.35;;;3.13;;
78416;SDS011;67715;46.170;6.140;2024-02-21T10:21:01;6.23;;;3.43;;
78416;SDS011;67715;46.170;6.140;2024-02-21T10:23:27;5.25;;;3.35;;
78416;SDS011;67715;46.170;6.140;2024-02-21T10:25:53;6.13;;;3.30;;
78416;SDS011;67715;46.170;6.140;2024-02-21T10:28:18;5.70;;;3.37;;
78416;SDS011;67715;46.170;6.140;2024-02-21T10:30:51;6.10;;;3.42;;
78416;SDS011;67715;46.170;6.140;2024-02-21T10:33:20;6.22;;;3.95;;
78416;SDS011;67715;46.170;6.140;2024-02-21T10:35:45;4.63;;;2.90;;
78416;SDS011;67715;46.170;6.140;2024-02-21T10:38:12;6.32;;;3.40;;
78416;SDS011;67715;46.170;6.140;2024-02-21T10:40:37;5.50;;;2.90;;
78416;SDS011;67715;46.170;6.140;2024-02-21T10:43:03;3.77;;;2.77;;
78416;SDS011;67715;46.170;6.140;2024-02-21T10:45:34;5.18;;;3.20;;
78416;SDS011;67715;46.170;6.140;2024-02-21T10:48:08;5.18;;;3.00;;
78416;SDS011;67715;46.170;6.140;2024-02-21T10:50:50;4.95;;;2.97;;
78416;SDS011;67715;46.170;6.140;2024-02-21T10:56:17;3.55;;;2.92;;
78416;SDS011;67715;46.170;6.140;2024-02-21T10:58:48;6.22;;;3.13;;
78416;SDS011;67715;46.170;6.140;2024-02-21T11:01:14;5.57;;;2.50;;
78416;SDS011;67715;46.170;6.140;2024-02-21T11:03:41;4.63;;;3.15;;
78416;SDS011;67715;46.170;6.140;2024-02-21T11:06:07;6.45;;;3.70;;
78416;SDS011;67715;46.170;6.140;2024-02-21T11:08:34;7.55;;;3.70;;
78416;SDS011;67715;46.170;6.140;2024-02-21T11:10:59;5.87;;;2.53;;
78416;SDS011;67715;46.170;6.140;2024-02-21T11:13:37;4.10;;;2.80;;
78416;SDS011;67715;46.170;6.140;2024-02-21T11:16:08;10.63;;;2.88;;
78416;SDS011;67715;46.170;6.140;2024-02-21T11:18:35;4.93;;;2.88;;
78416;SDS011;67715;46.170;6.140;2024-02-21T11:21:04;6.00;;;2.75;;
78416;SDS011;67715;46.170;6.140;2024-02-21T11:23:32;5.45;;;3.25;;
78416;SDS011;67715;46.170;6.140;2024-02-21T11:26:10;4.63;;;2.53;;
78416;SDS011;67715;46.170;6.140;2024-02-21T11:28:36;4.75;;;3.03;;
78416;SDS011;67715;46.170;6.140;2024-02-21T11:31:10;4.07;;;3.03;;
78416;SDS011;67715;46.170;6.140;2024-02-21T11:33:42;4.38;;;3.03;;
78416;SDS011;67715;46.170;6.140;2024-02-21T11:36:08;9.52;;;3.03;;
78416;SDS011;67715;46.170;6.140;2024-02-21T11:38:36;4.53;;;3.28;;
78416;SDS011;67715;46.170;6.140;2024-02-21T11:41:02;3.85;;;2.85;;
78416;SDS011;67715;46.170;6.140;2024-02-21T11:43:27;4.53;;;2.83;;
78416;SDS011;67715;46.170;6.140;2024-02-21T11:46:02;5.60;;;2.92;;
78416;SDS011;67715;46.170;6.140;2024-02-21T11:48:30;5.68;;;3.33;;
78416;SDS011;67715;46.170;6.140;2024-02-21T11:50:56;7.13;;;3.25;;
78416;SDS011;67715;46.170;6.140;2024-02-21T11:53:22;7.32;;;3.55;;
78416;SDS011;67715;46.170;6.140;2024-02-21T11:55:47;4.57;;;3.33;;
78416;SDS011;67715;46.170;6.140;2024-02-21T11:58:13;4.30;;;3.53;;
78416;SDS011;67715;46.170;6.140;2024-02-21T12:00:38;6.20;;;3.50;;
78416;SDS011;67715;46.170;6.140;2024-02-21T12:03:06;4.57;;;3.23;;
78416;SDS011;67715;46.170;6.140;2024-02-21T12:05:32;5.85;;;3.30;;
78416;SDS011;67715;46.170;6.140;2024-02-21T12:07:58;7.03;;;3.28;;
78416;SDS011;67715;46.170;6.140;2024-02-21T12:10:23;6.43;;;3.22;;
78416;SDS011;67715;46.170;6.140;2024-02-21T12:12:48;5.22;;;3.28;;
78416;SDS011;67715;46.170;6.140;2024-02-21T12:15:17;5.03;;;2.90;;
78416;SDS011;67715;46.170;6.140;2024-02-21T12:17:43;6.50;;;3.83;;
78416;SDS011;67715;46.170;6.140;2024-02-21T12:20:08;4.97;;;3.17;;
78416;SDS011;67715;46.170;6.140;2024-02-21T12:22:43;4.50;;;3.03;;
78416;SDS011;67715;46.170;6.140;2024-02-21T12:25:18;6.05;;;3.00;;
78416;SDS011;67715;46.170;6.140;2024-02-21T12:27:45;6.47;;;3.20;;
78416;SDS011;67715;46.170;6.140;2024-02-21T12:30:11;4.30;;;2.92;;
78416;SDS011;67715;46.170;6.140;2024-02-21T12:32:36;4.60;;;4.03;;
78416;SDS011;67715;46.170;6.140;2024-02-21T12:35:02;7.20;;;3.77;;
78416;SDS011;67715;46.170;6.140;2024-02-21T12:37:27;8.18;;;3.88;;
78416;SDS011;67715;46.170;6.140;2024-02-21T12:39:52;4.33;;;3.00;;
78416;SDS011;67715;46.170;6.140;2024-02-21T12:42:18;4.85;;;3.35;;
78416;SDS011;67715;46.170;6.140;2024-02-21T12:44:43;4.80;;;2.83;;
78416;SDS011;67715;46.170;6.140;2024-02-21T12:47:08;7.40;;;3.80;;
78416;SDS011;67715;46.170;6.140;2024-02-21T12:49:34;4.13;;;3.10;;
78416;SDS011;67715;46.170;6.140;2024-02-21T12:51:59;11.35;;;3.67;;
78416;SDS011;67715;46.170;6.140;2024-02-21T12:54:25;4.33;;;3.27;;
78416;SDS011;67715;46.170;6.140;2024-02-21T12:56:51;5.22;;;3.65;;
78416;SDS011;67715;46.170;6.140;2024-02-21T12:59:16;6.67;;;3.57;;
78416;SDS011;67715;46.170;6.140;2024-02-21T13:01:41;3.72;;;3.08;;
78416;SDS011;67715;46.170;6.140;2024-02-21T13:04:07;8.27;;;3.60;;
78416;SDS011;67715;46.170;6.140;2024-02-21T13:06:32;3.97;;;2.80;;
78416;SDS011;67715;46.170;6.140;2024-02-21T13:08:57;4.17;;;3.03;;
78416;SDS011;67715;46.170;6.140;2024-02-21T13:11:24;6.07;;;3.45;;
78416;SDS011;67715;46.170;6.140;2024-02-21T13:13:51;3.88;;;2.90;;
78416;SDS011;67715;46.170;6.140;2024-02-21T13:16:17;6.37;;;3.07;;
78416;SDS011;67715;46.170;6.140;2024-02-21T13:18:43;7.05;;;3.33;;
78416;SDS011;67715;46.170;6.140;2024-02-21T13:21:08;5.43;;;3.50;;
78416;SDS011;67715;46.170;6.140;2024-02-21T13:23:34;4.18;;;2.95;;
78416;SDS011;67715;46.170;6.140;2024-02-21T13:25:59;5.13;;;3.13;;
78416;SDS011;67715;46.170;6.140;2024-02-21T13:28:24;4.50;;;3.00;;
78416;SDS011;67715;46.170;6.140;2024-02-21T13:30:49;6.00;;;3.60;;
78416;SDS011;67715;46.170;6.140;2024-02-21T13:33:15;4.00;;;2.83;;
78416;SDS011;67715;46.170;6.140;2024-02-21T13:35:40;7.15;;;2.97;;
78416;SDS011;67715;46.170;6.140;2024-02-21T13:38:06;4.47;;;3.00;;
78416;SDS011;67715;46.170;6.140;2024-02-21T13:40:32;6.38;;;2.75;;
78416;SDS011;67715;46.170;6.140;2024-02-21T13:42:57;5.85;;;2.97;;
78416;SDS011;67715;46.170;6.140;2024-02-21T13:45:23;5.10;;;2.67;;
78416;SDS011;67715;46.170;6.140;2024-02-21T13:47:48;6.38;;;2.92;;
78416;SDS011;67715;46.170;6.140;2024-02-21T13:50:14;4.45;;;2.85;;
78416;SDS011;67715;46.170;6.140;2024-02-21T13:52:39;3.42;;;2.40;;
78416;SDS011;67715;46.170;6.140;2024-02-21T13:55:08;3.67;;;2.30;;
78416;SDS011;67715;46.170;6.140;2024-02-21T13:57:34;5.35;;;2.95;;
78416;SDS011;67715;46.170;6.140;2024-02-21T14:00:03;5.70;;;2.28;;
78416;SDS011;67715;46.170;6.140;2024-02-21T14:02:35;3.72;;;2.63;;
78416;SDS011;67715;46.170;6.140;2024-02-21T14:05:00;6.27;;;2.90;;
78416;SDS011;67715;46.170;6.140;2024-02-21T14:07:25;4.17;;;2.60;;
78416;SDS011;67715;46.170;6.140;2024-02-21T14:09:50;8.47;;;3.03;;
78416;SDS011;67715;46.170;6.140;2024-02-21T14:12:16;5.80;;;2.57;;
78416;SDS011;67715;46.170;6.140;2024-02-21T14:14:45;3.65;;;2.25;;
78416;SDS011;67715;46.170;6.140;2024-02-21T14:17:10;10.10;;;3.47;;
78416;SDS011;67715;46.170;6.140;2024-02-21T14:19:36;5.57;;;2.42;;
78416;SDS011;67715;46.170;6.140;2024-02-21T14:22:01;3.10;;;2.53;;
78416;SDS011;67715;46.170;6.140;2024-02-21T14:24:27;5.30;;;2.35;;
78416;SDS011;67715;46.170;6.140;2024-02-21T14:26:52;4.17;;;2.40;;
78416;SDS011;67715;46.170;6.140;2024-02-21T14:29:18;6.30;;;2.33;;
78416;SDS011;67715;46.170;6.140;2024-02-21T14:31:43;3.83;;;2.07;;
78416;SDS011;67715;46.170;6.140;2024-02-21T14:34:08;5.13;;;2.10;;
78416;SDS011;67715;46.170;6.140;2024-02-21T14:36:34;3.75;;;2.25;;
78416;SDS011;67715;46.170;6.140;2024-02-21T14:39:00;4.13;;;2.10;;
78416;SDS011;67715;46.170;6.140;2024-02-21T14:41:25;4.33;;;2.03;;
78416;SDS011;67715;46.170;6.140;2024-02-21T14:43:52;5.50;;;2.15;;
78416;SDS011;67715;46.170;6.140;2024-02-21T14:46:18;6.37;;;2.77;;
78416;SDS011;67715;46.170;6.140;2024-02-21T14:48:43;4.95;;;2.22;;